createdAt,value
2018-09-30T00:01:07.161Z,9.17
2018-09-30T00:04:40.696Z,10.50
2018-09-30T00:08:13.911Z,7.33
2018-09-30T00:11:47.123Z,6.77
2018-09-30T00:15:20.373Z,7.20
2018-09-30T00:18:53.597Z,6.97
2018-09-30T00:22:26.804Z,8.07
2018-09-30T00:26:05.350Z,7.53
2018-09-30T00:29:38.580Z,6.90
2018-09-30T00:33:11.789Z,6.40
2018-09-30T00:36:45.017Z,6.33
2018-09-30T00:40:18.232Z,5.80
2018-09-30T00:43:51.461Z,5.70
2018-09-30T00:47:24.677Z,6.43
2018-09-30T00:50:57.996Z,7.00
2018-09-30T00:54:31.221Z,6.37
2018-09-30T00:58:04.452Z,6.70
2018-09-30T01:01:37.743Z,7.27
2018-09-30T01:05:10.980Z,7.17
2018-09-30T01:08:44.209Z,7.10
2018-09-30T01:12:17.426Z,5.77
2018-09-30T01:15:50.669Z,6.30
2018-09-30T01:19:23.895Z,7.13
2018-09-30T01:22:57.132Z,7.97
2018-09-30T01:26:30.372Z,7.67
2018-09-30T01:30:03.621Z,8.67
2018-09-30T01:33:36.877Z,7.93
2018-09-30T01:37:10.096Z,7.87
2018-09-30T01:40:43.333Z,7.30
2018-09-30T01:44:16.563Z,7.00
2018-09-30T01:47:49.776Z,6.83
2018-09-30T01:51:22.997Z,9.17
2018-09-30T01:54:56.232Z,8.10
2018-09-30T01:58:29.449Z,7.60
2018-09-30T02:02:02.709Z,7.40
2018-09-30T02:05:35.939Z,7.63
2018-09-30T02:09:09.151Z,6.10
2018-09-30T02:12:42.429Z,5.77
2018-09-30T02:16:15.656Z,5.40
2018-09-30T02:19:48.879Z,4.57
2018-09-30T02:23:22.100Z,4.63
2018-09-30T02:26:55.328Z,6.10
2018-09-30T02:30:28.555Z,6.80
2018-09-30T02:34:01.767Z,5.73
2018-09-30T02:37:34.996Z,4.60
2018-09-30T02:41:08.573Z,6.03
2018-09-30T02:44:41.980Z,6.90
2018-09-30T02:48:15.200Z,4.23
2018-09-30T02:51:48.509Z,5.43
2018-09-30T02:55:21.737Z,6.83
2018-09-30T02:58:54.954Z,6.93
2018-09-30T03:02:28.184Z,7.17
2018-09-30T03:06:01.417Z,5.50
2018-09-30T03:09:34.628Z,4.60
2018-09-30T03:13:07.858Z,5.57
2018-09-30T03:16:41.603Z,4.93
2018-09-30T03:20:14.824Z,4.53
2018-09-30T03:23:48.044Z,3.70
2018-09-30T03:27:21.296Z,4.53
2018-09-30T03:30:54.538Z,5.20
2018-09-30T03:34:27.755Z,5.53
2018-09-30T03:38:01.001Z,6.13
2018-09-30T03:41:34.220Z,6.00
2018-09-30T03:45:07.669Z,6.03
2018-09-30T03:48:40.882Z,7.37
2018-09-30T03:52:14.111Z,6.97
2018-09-30T03:55:47.337Z,7.30
2018-09-30T03:59:20.561Z,6.23
2018-09-30T04:02:53.772Z,6.73
2018-09-30T04:06:27.588Z,6.30
2018-09-30T04:10:00.843Z,6.03
2018-09-30T04:13:34.033Z,5.90
2018-09-30T04:17:07.316Z,5.20
2018-09-30T04:20:40.501Z,5.87
2018-09-30T04:24:13.725Z,6.33
2018-09-30T04:27:46.961Z,6.50
2018-09-30T04:31:20.180Z,7.13
2018-09-30T04:34:53.399Z,6.03
2018-09-30T04:38:26.633Z,5.83
2018-09-30T04:41:59.863Z,4.33
2018-09-30T04:45:33.092Z,4.93
2018-09-30T04:49:06.371Z,5.17
2018-09-30T04:52:39.593Z,4.70
2018-09-30T04:56:12.894Z,5.70
2018-09-30T04:59:46.114Z,6.07
2018-09-30T05:03:19.340Z,5.97
2018-09-30T05:06:52.585Z,6.33
2018-09-30T05:10:25.795Z,6.10
2018-09-30T05:13:59.613Z,6.20
2018-09-30T05:17:32.947Z,6.10
2018-09-30T05:21:06.164Z,6.37
2018-09-30T05:24:39.393Z,6.50
2018-09-30T05:28:12.703Z,6.90
2018-09-30T05:31:46.539Z,6.87
2018-09-30T05:35:20.216Z,6.30
2018-09-30T05:38:53.733Z,6.07
2018-09-30T05:42:27.259Z,6.53
2018-09-30T05:46:00.470Z,6.20
2018-09-30T05:49:33.743Z,6.33
2018-09-30T05:53:06.964Z,5.17
2018-09-30T05:56:40.196Z,5.03
2018-09-30T06:00:13.428Z,4.90
2018-09-30T06:03:46.649Z,5.10
2018-09-30T06:07:19.953Z,4.80
2018-09-30T06:10:53.193Z,4.63
2018-09-30T06:14:26.429Z,5.80
2018-09-30T06:17:59.947Z,6.47
2018-09-30T06:21:33.196Z,9.00
2018-09-30T06:25:06.432Z,5.00
2018-09-30T06:28:39.661Z,5.43
2018-09-30T06:32:12.905Z,5.53
2018-09-30T06:35:46.178Z,5.80
2018-09-30T06:39:19.415Z,5.20
2018-09-30T06:42:52.644Z,4.57
2018-09-30T06:46:25.859Z,5.00
2018-09-30T06:49:59.216Z,4.87
2018-09-30T06:53:32.509Z,5.20
2018-09-30T06:57:06.095Z,6.03
2018-09-30T07:00:39.332Z,5.60
2018-09-30T07:04:12.580Z,5.70
2018-09-30T07:07:45.830Z,5.50
2018-09-30T07:11:19.064Z,5.63
2018-09-30T07:14:52.322Z,5.90
2018-09-30T07:18:25.565Z,4.83
2018-09-30T07:21:58.782Z,5.67
2018-09-30T07:25:32.024Z,7.27
2018-09-30T07:29:05.256Z,6.43
2018-09-30T07:32:38.492Z,7.27
2018-09-30T07:36:11.746Z,7.83
2018-09-30T07:39:44.978Z,7.17
2018-09-30T07:43:18.211Z,7.73
2018-09-30T07:46:51.534Z,5.70
2018-09-30T07:50:24.689Z,6.40
2018-09-30T07:53:57.935Z,6.90
2018-09-30T07:57:31.172Z,5.73
2018-09-30T08:01:04.398Z,4.83
2018-09-30T08:04:37.824Z,4.40
2018-09-30T08:08:11.069Z,4.10
2018-09-30T08:11:44.304Z,4.23
2018-09-30T08:15:17.562Z,4.90
2018-09-30T08:18:50.826Z,4.60
2018-09-30T08:22:24.113Z,4.50
2018-09-30T08:25:57.359Z,2.80
2018-09-30T08:29:30.601Z,4.43
2018-09-30T08:33:03.861Z,3.30
2018-09-30T08:36:37.082Z,2.93
2018-09-30T08:40:10.359Z,3.23
2018-09-30T08:43:44.196Z,3.07
2018-09-30T08:47:17.501Z,4.00
2018-09-30T08:50:50.697Z,2.90
2018-09-30T08:54:23.970Z,3.47
2018-09-30T08:57:57.221Z,3.00
2018-09-30T09:01:30.466Z,2.23
2018-09-30T09:05:03.696Z,2.80
2018-09-30T09:08:36.949Z,3.13
2018-09-30T09:12:10.199Z,1.90
2018-09-30T09:15:43.665Z,2.17
2018-09-30T09:19:16.897Z,2.90
2018-09-30T09:22:50.382Z,2.83
2018-09-30T09:26:23.494Z,2.30
2018-09-30T09:29:56.735Z,3.20
2018-09-30T09:33:29.973Z,2.47
2018-09-30T09:37:03.835Z,3.33
2018-09-30T09:40:37.078Z,1.87
2018-09-30T09:44:10.335Z,2.30
2018-09-30T09:47:43.562Z,2.80
2018-09-30T09:51:16.812Z,2.27
2018-09-30T09:54:50.091Z,2.50
2018-09-30T09:58:23.333Z,2.23
2018-09-30T10:01:56.943Z,3.03
2018-09-30T10:05:30.194Z,2.10
2018-09-30T10:09:04.736Z,2.60
2018-09-30T10:12:37.980Z,2.33
2018-09-30T10:16:11.227Z,2.13
2018-09-30T10:19:44.994Z,2.60
2018-09-30T10:23:18.244Z,2.73
2018-09-30T10:26:51.488Z,2.90
2018-09-30T10:30:24.746Z,2.10
2018-09-30T10:33:58.026Z,2.50
2018-09-30T10:37:31.271Z,2.23
2018-09-30T10:41:04.743Z,2.93
2018-09-30T10:44:37.961Z,2.60
2018-09-30T10:48:11.244Z,2.47
2018-09-30T10:51:44.529Z,2.50
2018-09-30T10:55:17.831Z,2.47
2018-09-30T10:58:51.016Z,2.90
2018-09-30T11:02:24.316Z,2.77
2018-09-30T11:05:57.572Z,3.40
2018-09-30T11:09:30.869Z,3.60
2018-09-30T11:13:04.072Z,2.87
2018-09-30T11:16:37.324Z,2.90
2018-09-30T11:20:10.569Z,2.63
2018-09-30T11:23:43.808Z,3.00
2018-09-30T11:27:17.053Z,3.20
2018-09-30T11:30:50.296Z,3.13
2018-09-30T11:34:23.520Z,3.37
2018-09-30T11:37:56.762Z,3.00
2018-09-30T11:41:30.020Z,3.67
2018-09-30T11:45:03.277Z,3.63
2018-09-30T11:48:36.505Z,3.23
2018-09-30T11:52:09.753Z,3.63
2018-09-30T11:55:42.981Z,3.10
2018-09-30T11:59:16.216Z,3.40
2018-09-30T12:02:49.468Z,3.53
2018-09-30T12:06:22.719Z,3.10
2018-09-30T12:09:55.950Z,3.50
2018-09-30T12:13:29.787Z,3.33
2018-09-30T12:17:03.100Z,3.97
2018-09-30T12:20:36.693Z,3.70
2018-09-30T12:24:09.926Z,4.23
2018-09-30T12:27:43.192Z,5.23
2018-09-30T12:31:16.425Z,4.67
2018-09-30T12:34:49.716Z,4.37
2018-09-30T12:38:22.970Z,3.80
2018-09-30T12:41:56.209Z,3.43
2018-09-30T12:45:29.433Z,3.80
2018-09-30T12:49:02.873Z,4.70
2018-09-30T12:52:36.108Z,3.80
2018-09-30T12:56:09.341Z,4.50
2018-09-30T12:59:42.586Z,4.53
2018-09-30T13:03:15.836Z,5.27
2018-09-30T13:06:49.063Z,3.97
2018-09-30T13:10:22.312Z,4.33
2018-09-30T13:13:55.571Z,4.17
2018-09-30T13:17:29.220Z,3.83
2018-09-30T13:21:02.675Z,3.60
2018-09-30T13:24:36.101Z,3.80
2018-09-30T13:28:09.416Z,4.90
2018-09-30T13:31:42.635Z,4.17
2018-09-30T13:35:15.880Z,4.07
2018-09-30T13:38:50.044Z,3.87
2018-09-30T13:42:23.273Z,4.30
2018-09-30T13:45:56.558Z,3.90
2018-09-30T13:49:29.761Z,4.53
2018-09-30T13:53:03.004Z,4.30
2018-09-30T13:56:36.221Z,3.40
2018-09-30T14:00:09.734Z,4.00
2018-09-30T14:03:42.980Z,3.80
2018-09-30T14:07:16.220Z,4.17
2018-09-30T14:10:49.468Z,4.07
2018-09-30T14:14:22.713Z,4.00
2018-09-30T14:17:55.953Z,4.50
2018-09-30T14:21:29.228Z,3.80
2018-09-30T14:25:02.761Z,4.60
2018-09-30T14:28:35.989Z,4.30
2018-09-30T14:32:09.238Z,4.50
2018-09-30T14:35:42.487Z,4.20
2018-09-30T14:39:15.789Z,3.87
2018-09-30T14:42:49.024Z,4.93
2018-09-30T14:46:22.282Z,3.73
2018-09-30T14:49:55.507Z,4.93
2018-09-30T14:53:28.741Z,4.47
2018-09-30T14:57:02.001Z,4.37
2018-09-30T15:00:35.405Z,4.10
2018-09-30T15:04:08.644Z,5.37
2018-09-30T15:07:41.868Z,4.60
2018-09-30T15:11:15.137Z,4.87
2018-09-30T15:14:48.365Z,5.20
2018-09-30T15:18:21.604Z,5.03
2018-09-30T15:21:54.866Z,5.37
2018-09-30T15:25:28.121Z,4.37
2018-09-30T15:29:01.364Z,4.33
2018-09-30T15:32:34.629Z,5.40
2018-09-30T15:36:07.876Z,4.50
2018-09-30T15:39:41.151Z,4.80
2018-09-30T15:43:14.396Z,4.30
2018-09-30T15:46:47.628Z,4.30
2018-09-30T15:50:20.882Z,5.10
2018-09-30T15:53:54.940Z,5.30
2018-09-30T15:57:28.163Z,4.70
2018-09-30T16:01:01.416Z,4.50
2018-09-30T16:04:34.715Z,4.73
2018-09-30T16:08:07.966Z,4.93
2018-09-30T16:11:41.225Z,4.87
2018-09-30T16:15:14.466Z,5.50
2018-09-30T16:18:47.697Z,4.90
2018-09-30T16:22:20.928Z,4.63
2018-09-30T16:25:54.163Z,4.40
2018-09-30T16:29:27.480Z,4.50
2018-09-30T16:33:00.718Z,5.90
2018-09-30T16:36:33.957Z,5.80
2018-09-30T16:40:07.221Z,6.43
2018-09-30T16:43:40.557Z,5.50
2018-09-30T16:47:13.771Z,6.00
2018-09-30T16:50:47.022Z,5.83
2018-09-30T16:54:20.260Z,5.27
2018-09-30T16:57:53.501Z,6.67
2018-09-30T17:01:26.772Z,7.87
2018-09-30T17:05:00.088Z,9.03
2018-09-30T17:08:33.445Z,8.10
2018-09-30T17:12:06.698Z,10.40
2018-09-30T17:15:40.023Z,11.20
2018-09-30T17:19:13.365Z,13.57
2018-09-30T17:22:46.612Z,15.77
2018-09-30T17:26:19.853Z,14.00
2018-09-30T17:29:53.121Z,15.50
2018-09-30T17:33:26.380Z,16.10
2018-09-30T17:36:59.842Z,17.00
2018-09-30T17:40:33.084Z,14.63
2018-09-30T17:44:06.351Z,16.20
2018-09-30T17:47:39.596Z,13.53
2018-09-30T17:51:12.879Z,11.90
2018-09-30T17:54:46.103Z,13.70
2018-09-30T17:58:19.357Z,13.60
2018-09-30T18:01:52.618Z,12.07
2018-09-30T18:05:25.887Z,12.40
2018-09-30T18:08:59.151Z,14.27
2018-09-30T18:12:32.444Z,13.90
2018-09-30T18:16:05.702Z,14.20
2018-09-30T18:19:38.964Z,12.73
2018-09-30T18:23:12.198Z,16.10
2018-09-30T18:26:45.460Z,14.13
2018-09-30T18:30:19.737Z,12.13
2018-09-30T18:33:53.037Z,12.47
2018-09-30T18:37:26.297Z,13.53
2018-09-30T18:40:59.553Z,13.93
2018-09-30T18:44:32.793Z,15.60
2018-09-30T18:48:06.569Z,16.67
2018-09-30T18:51:39.815Z,14.57
2018-09-30T18:55:13.070Z,16.53
2018-09-30T18:58:46.312Z,15.70
2018-09-30T19:02:19.629Z,16.20
2018-09-30T19:05:52.884Z,13.57
2018-09-30T19:09:26.133Z,13.47
2018-09-30T19:12:59.365Z,19.60
2018-09-30T19:16:32.879Z,21.90
2018-09-30T19:20:06.131Z,23.17
2018-09-30T19:23:39.374Z,17.33
2018-09-30T19:27:12.609Z,15.77
2018-09-30T19:30:45.869Z,14.27
2018-09-30T19:34:19.164Z,15.00
2018-09-30T19:37:52.417Z,18.67
2018-09-30T19:41:25.696Z,22.47
2018-09-30T19:44:58.956Z,24.27
2018-09-30T19:48:32.250Z,18.90
2018-09-30T19:52:05.515Z,18.73
2018-09-30T19:55:38.785Z,16.60
2018-09-30T19:59:12.126Z,16.27
2018-09-30T20:02:45.467Z,15.47
2018-09-30T20:06:18.761Z,16.53
2018-09-30T20:09:52.059Z,15.83
2018-09-30T20:13:25.353Z,13.20
2018-09-30T20:16:58.596Z,15.20
2018-09-30T20:20:31.856Z,16.50
2018-09-30T20:24:05.183Z,16.63
2018-09-30T20:27:38.442Z,15.20
2018-09-30T20:31:11.695Z,15.50
2018-09-30T20:34:44.993Z,15.40
2018-09-30T20:38:18.344Z,12.90
2018-09-30T20:41:51.591Z,15.17
2018-09-30T20:45:24.820Z,13.70
2018-09-30T20:48:58.093Z,14.10
2018-09-30T20:52:31.313Z,13.70
2018-09-30T20:56:04.558Z,13.70
2018-09-30T20:59:37.820Z,12.90
2018-09-30T21:03:11.085Z,14.97
2018-09-30T21:06:45.012Z,15.50
2018-09-30T21:10:18.303Z,14.10
2018-09-30T21:13:51.526Z,14.37
2018-09-30T21:17:24.756Z,12.30
2018-09-30T21:20:58.020Z,13.07
2018-09-30T21:24:31.338Z,13.43
2018-09-30T21:28:04.564Z,19.13
2018-09-30T21:31:37.867Z,15.67
2018-09-30T21:35:11.100Z,15.30
2018-09-30T21:38:44.326Z,13.20
2018-09-30T21:42:17.681Z,13.67
2018-09-30T21:45:50.921Z,12.57
2018-09-30T21:49:24.144Z,12.03
2018-09-30T21:52:57.388Z,12.93
2018-09-30T21:56:30.627Z,11.27
2018-09-30T22:00:03.893Z,12.67
2018-09-30T22:03:37.156Z,14.80
2018-09-30T22:07:10.405Z,13.73
2018-09-30T22:10:43.644Z,14.27
2018-09-30T22:14:16.876Z,14.70
2018-09-30T22:17:50.165Z,14.13
2018-09-30T22:21:23.409Z,12.53
2018-09-30T22:24:56.640Z,12.40
2018-09-30T22:28:29.876Z,14.00
2018-09-30T22:32:03.108Z,13.07
2018-09-30T22:35:36.341Z,12.40
2018-09-30T22:39:09.704Z,13.10
2018-09-30T22:42:42.952Z,13.90
2018-09-30T22:46:16.201Z,13.57
2018-09-30T22:49:49.445Z,12.87
2018-09-30T22:53:22.707Z,13.30
2018-09-30T22:56:55.916Z,14.10
2018-09-30T23:00:29.189Z,14.67
2018-09-30T23:04:02.429Z,13.63
2018-09-30T23:07:35.675Z,13.40
2018-09-30T23:11:08.917Z,13.87
2018-09-30T23:14:42.149Z,13.00
2018-09-30T23:18:15.390Z,13.80
2018-09-30T23:21:48.636Z,13.17
2018-09-30T23:25:21.871Z,14.40
2018-09-30T23:28:55.119Z,12.30
2018-09-30T23:32:28.352Z,13.70
2018-09-30T23:36:01.592Z,17.40
2018-09-30T23:39:34.839Z,16.30
2018-09-30T23:43:08.114Z,15.20
2018-09-30T23:46:41.347Z,15.70
2018-09-30T23:50:14.577Z,14.83
2018-09-30T23:53:48.017Z,15.57
2018-09-30T23:57:21.250Z,13.83
